Time;durP1;ratioP1;P1;durP2;ratioP2;P2;SDS_P1;SDS_P2;PMS_P1;PMS_P2;Temp;Humidity;BMP_temperature;BMP_pressure;BME280_temperature;BME280_humidity;BME280_pressure;Samples;Min_cycle;Max_cycle;Signal;HPM_P1;HPM_P2
2022/09/28 00:00:40;;;;;;;2.90;1.50;;;9.90;99.90;;;;;;5066285;28;20449;-86
2022/09/28 00:03:08;;;;;;;2.20;1.60;;;9.90;99.90;;;;;;5054974;28;20861;-87
2022/09/28 00:05:35;;;;;;;2.30;1.40;;;9.90;99.90;;;;;;5054119;28;20465;-87
2022/09/28 00:08:02;;;;;;;3.73;1.80;;;9.90;99.90;;;;;;5058430;28;20481;-88
2022/09/28 00:10:29;;;;;;;3.67;1.50;;;9.90;99.90;;;;;;5075749;28;20429;-87
2022/09/28 00:12:55;;;;;;;2.53;1.80;;;9.90;99.90;;;;;;5066929;28;20464;-87
2022/09/28 00:15:23;;;;;;;2.17;1.40;;;10.00;99.90;;;;;;5069835;28;20441;-87
2022/09/28 00:17:50;;;;;;;2.90;1.80;;;9.90;99.90;;;;;;5074339;28;20464;-87
2022/09/28 00:20:18;;;;;;;4.07;2.53;;;9.90;99.90;;;;;;5054777;28;20507;-87
2022/09/28 00:22:45;;;;;;;4.23;2.83;;;10.00;99.90;;;;;;5053194;28;20444;-87
2022/09/28 00:25:12;;;;;;;4.57;2.60;;;10.00;99.90;;;;;;5056908;28;20504;-87
2022/09/28 00:27:39;;;;;;;3.10;2.70;;;10.10;99.90;;;;;;5076050;28;20986;-88
2022/09/28 00:30:07;;;;;;;4.40;2.60;;;10.00;99.90;;;;;;5077523;28;20476;-87
2022/09/28 00:32:33;;;;;;;7.93;3.33;;;10.00;99.90;;;;;;5078060;28;20433;-87
2022/09/28 00:35:00;;;;;;;5.10;2.37;;;10.00;99.90;;;;;;5076812;28;20461;-86
2022/09/28 00:37:28;;;;;;;4.20;2.90;;;10.10;99.90;;;;;;5073708;28;20441;-86
2022/09/28 00:39:55;;;;;;;4.57;2.73;;;10.00;99.90;;;;;;5060632;28;20503;-86
2022/09/28 00:42:24;;;;;;;5.73;2.87;;;10.00;99.90;;;;;;5057542;28;20448;-86
2022/09/28 00:44:51;;;;;;;5.07;2.40;;;10.00;99.90;;;;;;5056084;28;20988;-86
2022/09/28 00:47:39;;;;;;;7.17;3.27;;;10.00;99.90;;;;;;5054595;28;20449;-86
2022/09/28 00:50:12;;;;;;;2.90;2.10;;;10.00;99.90;;;;;;5054028;28;20488;-86
2022/09/28 00:52:44;;;;;;;6.47;3.30;;;10.00;99.90;;;;;;5053433;28;20448;-86
2022/09/28 00:55:14;;;;;;;5.53;2.20;;;10.00;99.90;;;;;;5053241;28;20468;-86
2022/09/28 00:57:46;;;;;;;3.70;2.77;;;10.00;99.90;;;;;;5053698;28;20878;-86
2022/09/28 01:00:13;;;;;;;4.80;1.80;;;10.00;99.90;;;;;;5066119;28;20436;-86
2022/09/28 01:02:40;;;;;;;4.30;2.33;;;10.10;99.90;;;;;;5077777;28;20432;-86
2022/09/28 01:05:09;;;;;;;4.70;2.60;;;10.10;99.90;;;;;;5063026;28;20518;-86
2022/09/28 01:07:37;;;;;;;3.90;2.50;;;10.10;99.90;;;;;;5053064;28;20445;-87
2022/09/28 01:10:07;;;;;;;3.43;2.23;;;10.10;99.90;;;;;;5052808;28;20480;-87
2022/09/28 01:12:33;;;;;;;5.00;2.40;;;10.20;99.90;;;;;;5052907;28;20832;-87
2022/09/28 01:15:01;;;;;;;5.33;2.13;;;10.10;99.90;;;;;;5052483;28;20899;-87
2022/09/28 01:17:36;;;;;;;3.73;2.07;;;10.20;99.90;;;;;;5052945;28;20441;-87
2022/09/28 01:20:23;;;;;;;3.40;2.17;;;10.20;99.90;;;;;;5052869;28;20440;-87
2022/09/28 01:23:18;;;;;;;4.57;2.27;;;10.20;99.90;;;;;;5055107;28;20440;-87
2022/09/28 01:25:53;;;;;;;3.53;1.70;;;10.10;99.90;;;;;;5052888;28;20449;-87
2022/09/28 01:28:27;;;;;;;3.93;2.60;;;10.10;99.90;;;;;;5062654;28;20480;-86
2022/09/28 01:31:03;;;;;;;2.50;1.93;;;10.20;99.90;;;;;;5076345;28;20463;-87
2022/09/28 01:33:37;;;;;;;3.57;1.60;;;10.20;99.90;;;;;;5065111;28;20468;-87
2022/09/28 01:36:10;;;;;;;5.50;2.77;;;10.30;99.90;;;;;;5053290;28;20476;-87
2022/09/28 01:38:41;;;;;;;4.83;2.13;;;10.30;99.90;;;;;;5052592;28;20472;-87
2022/09/28 01:41:09;;;;;;;2.87;2.00;;;10.30;99.90;;;;;;5052764;28;20453;-87
2022/09/28 01:43:40;;;;;;;2.90;1.90;;;10.30;99.90;;;;;;5052322;28;20531;-87
2022/09/28 01:46:12;;;;;;;5.50;1.53;;;10.30;99.90;;;;;;5052026;28;20449;-87
2022/09/28 01:48:45;;;;;;;3.40;1.60;;;10.30;99.90;;;;;;5052231;28;20488;-87
2022/09/28 01:51:18;;;;;;;3.87;1.93;;;10.30;99.90;;;;;;5052047;28;20449;-87
2022/09/28 01:53:50;;;;;;;4.30;2.03;;;10.40;99.90;;;;;;5052123;28;20479;-87
2022/09/28 01:56:23;;;;;;;2.90;1.50;;;10.40;99.90;;;;;;5051942;28;20464;-87
2022/09/28 01:58:57;;;;;;;4.50;1.70;;;10.40;99.90;;;;;;5052058;28;20452;-87
2022/09/28 02:01:29;;;;;;;2.97;1.20;;;10.40;99.90;;;;;;5051892;28;20445;-87
2022/09/28 02:04:02;;;;;;;2.07;1.43;;;10.50;99.90;;;;;;5051807;28;20473;-87
2022/09/28 02:06:37;;;;;;;4.47;1.43;;;10.50;99.90;;;;;;5051784;28;20452;-86
2022/09/28 02:09:10;;;;;;;4.03;1.33;;;10.50;99.90;;;;;;5076953;28;20495;-87
2022/09/28 02:11:40;;;;;;;4.00;1.67;;;10.60;99.90;;;;;;5073862;28;20533;-87
2022/09/28 02:14:10;;;;;;;3.23;1.67;;;10.60;99.90;;;;;;5051779;28;20465;-87
2022/09/28 02:16:40;;;;;;;3.53;1.40;;;10.60;99.90;;;;;;5053348;28;20441;-87
2022/09/28 02:19:09;;;;;;;1.73;0.93;;;10.70;99.90;;;;;;5059677;28;20499;-87
2022/09/28 02:21:42;;;;;;;3.13;1.17;;;10.70;99.90;;;;;;5063162;28;20444;-87
2022/09/28 02:24:15;;;;;;;2.80;1.30;;;10.80;99.90;;;;;;5073812;28;20468;-87
2022/09/28 02:26:45;;;;;;;2.90;1.50;;;10.80;99.90;;;;;;5073926;28;20441;-87
2022/09/28 02:29:13;;;;;;;6.40;1.90;;;10.90;99.90;;;;;;5060764;28;20480;-87
2022/09/28 02:31:40;;;;;;;3.93;1.53;;;10.90;99.90;;;;;;5051836;28;20452;-87
2022/09/28 02:34:07;;;;;;;5.73;1.60;;;10.90;99.90;;;;;;5058824;28;20475;-87
2022/09/28 02:36:34;;;;;;;8.87;1.53;;;10.90;99.90;;;;;;5051594;28;20452;-86
2022/09/28 02:39:01;;;;;;;3.90;1.43;;;10.90;99.90;;;;;;5051731;28;20539;-87
2022/09/28 02:41:44;;;;;;;4.47;1.40;;;11.00;99.90;;;;;;5051781;28;20826;-86
2022/09/28 02:44:24;;;;;;;3.90;1.43;;;11.00;99.90;;;;;;5051513;28;20472;-87
2022/09/28 02:46:56;;;;;;;3.30;1.57;;;11.00;99.90;;;;;;5054172;28;20448;-86
2022/09/28 02:49:29;;;;;;;5.37;1.43;;;11.10;99.90;;;;;;5055566;28;20563;-87
2022/09/28 02:52:18;;;;;;;4.50;1.70;;;11.10;99.90;;;;;;5055865;28;20445;-88
2022/09/28 02:55:10;;;;;;;2.57;1.60;;;11.10;99.90;;;;;;5055795;28;20472;-85
2022/09/28 02:57:47;;;;;;;5.27;1.90;;;11.10;99.90;;;;;;5055724;28;20433;-86
2022/09/28 03:00:18;;;;;;;4.80;1.73;;;11.10;99.90;;;;;;5055768;28;20460;-85
2022/09/28 03:02:55;;;;;;;2.60;1.33;;;11.10;99.90;;;;;;5058119;28;20441;-85
2022/09/28 03:05:25;;;;;;;3.70;1.23;;;11.10;99.90;;;;;;5056689;28;20448;-85
2022/09/28 03:07:59;;;;;;;3.80;1.80;;;11.00;99.90;;;;;;5056471;28;20455;-85
2022/09/28 03:10:34;;;;;;;4.70;1.57;;;11.10;99.90;;;;;;5056788;28;20488;-85
2022/09/28 03:13:02;;;;;;;2.33;1.57;;;11.00;99.90;;;;;;5057174;28;20452;-85
2022/09/28 03:15:32;;;;;;;4.10;1.30;;;11.00;99.90;;;;;;5081379;28;20463;-86
2022/09/28 03:17:59;;;;;;;3.87;1.77;;;11.10;99.90;;;;;;5076076;28;20494;-85
2022/09/28 03:20:27;;;;;;;2.33;1.20;;;11.10;99.90;;;;;;5055484;28;20502;-85
2022/09/28 03:22:54;;;;;;;8.90;1.90;;;11.10;99.90;;;;;;5055315;28;20456;-86
2022/09/28 03:25:21;;;;;;;4.97;1.60;;;11.10;99.90;;;;;;5055159;28;20476;-85
2022/09/28 03:27:48;;;;;;;4.47;1.43;;;11.10;99.90;;;;;;5055272;28;20490;-87
2022/09/28 03:30:15;;;;;;;3.30;1.40;;;11.10;99.90;;;;;;5066261;28;20491;-85
2022/09/28 03:32:43;;;;;;;3.20;1.50;;;11.10;99.90;;;;;;5070303;28;20456;-85
2022/09/28 03:35:10;;;;;;;3.40;1.37;;;11.10;99.90;;;;;;5057612;28;20469;-85
2022/09/28 03:37:37;;;;;;;5.30;2.00;;;11.10;99.90;;;;;;5065658;28;20871;-85
2022/09/28 03:40:04;;;;;;;2.20;1.40;;;11.10;99.90;;;;;;5066081;28;20949;-85
2022/09/28 03:42:31;;;;;;;3.23;1.77;;;11.10;99.90;;;;;;5073310;28;20450;-86
2022/09/28 03:44:58;;;;;;;3.83;1.90;;;11.10;99.90;;;;;;5074841;28;20477;-85
2022/09/28 03:47:24;;;;;;;4.80;1.50;;;11.10;99.90;;;;;;5057027;28;20445;-87
2022/09/28 03:49:52;;;;;;;4.63;1.60;;;11.10;99.90;;;;;;5055633;28;20484;-87
2022/09/28 03:52:19;;;;;;;1.90;1.43;;;11.10;99.90;;;;;;5055599;28;20470;-85
2022/09/28 03:54:45;;;;;;;4.30;1.30;;;11.10;99.90;;;;;;5054943;28;20468;-87
2022/09/28 03:57:12;;;;;;;3.97;1.50;;;11.10;99.90;;;;;;5054981;28;20452;-86
2022/09/28 03:59:39;;;;;;;5.90;2.30;;;11.10;99.90;;;;;;5055159;28;20468;-86
2022/09/28 04:02:06;;;;;;;2.70;1.37;;;11.10;99.90;;;;;;5054868;28;20449;-86
2022/09/28 04:04:32;;;;;;;4.10;1.50;;;11.00;99.90;;;;;;5054462;28;20468;-86
2022/09/28 04:07:00;;;;;;;5.30;1.70;;;11.00;99.90;;;;;;5054586;28;20447;-85
2022/09/28 04:09:27;;;;;;;1.87;1.00;;;10.90;99.90;;;;;;5054512;28;20993;-85
2022/09/28 04:11:54;;;;;;;4.47;1.40;;;10.90;99.90;;;;;;5055078;28;20468;-87
2022/09/28 04:14:20;;;;;;;5.37;2.40;;;10.80;99.90;;;;;;5054517;28;20472;-86
2022/09/28 04:16:47;;;;;;;2.77;1.20;;;10.70;99.90;;;;;;5054692;28;20448;-87
2022/09/28 04:19:14;;;;;;;2.80;1.37;;;10.70;99.90;;;;;;5073529;28;20457;-87
2022/09/28 04:21:41;;;;;;;3.10;1.20;;;10.60;99.90;;;;;;5065287;28;20476;-87
2022/09/28 04:24:10;;;;;;;2.80;1.30;;;10.50;99.90;;;;;;5075796;28;20981;-87
2022/09/28 04:26:36;;;;;;;2.17;1.10;;;10.60;99.90;;;;;;5072708;28;20448;-87
2022/09/28 04:29:15;;;;;;;3.73;1.13;;;10.60;99.90;;;;;;5061770;28;20977;-87
2022/09/28 04:31:44;;;;;;;3.40;1.20;;;10.60;99.90;;;;;;5070754;28;20437;-87
2022/09/28 04:34:12;;;;;;;3.33;1.43;;;10.60;99.90;;;;;;5064580;28;20460;-87
2022/09/28 04:36:38;;;;;;;4.40;1.20;;;10.60;99.90;;;;;;5055664;28;20448;-87
2022/09/28 04:39:05;;;;;;;4.23;0.87;;;10.60;99.90;;;;;;5054439;28;20451;-87
2022/09/28 04:41:33;;;;;;;2.70;1.73;;;10.60;99.90;;;;;;5055380;28;20491;-87
2022/09/28 04:44:00;;;;;;;2.10;1.07;;;10.60;99.90;;;;;;5053842;28;20514;-87
2022/09/28 04:46:27;;;;;;;4.30;1.67;;;10.50;99.90;;;;;;5053260;28;20803;-87
2022/09/28 04:48:53;;;;;;;3.17;1.30;;;10.50;99.90;;;;;;5054477;28;20440;-87
2022/09/28 04:51:20;;;;;;;1.67;1.10;;;10.50;99.90;;;;;;5063047;28;20480;-87
2022/09/28 04:53:47;;;;;;;1.70;0.90;;;10.50;99.90;;;;;;5075655;28;20499;-87
2022/09/28 04:56:15;;;;;;;3.50;1.73;;;10.50;99.90;;;;;;5073164;28;20466;-87
2022/09/28 04:58:44;;;;;;;2.73;1.40;;;10.50;99.90;;;;;;5073613;28;20521;-87
2022/09/28 05:01:13;;;;;;;3.20;1.80;;;10.50;99.90;;;;;;5073810;28;20452;-87
2022/09/28 05:03:39;;;;;;;2.03;1.20;;;10.50;99.90;;;;;;5073627;28;20525;-87
2022/09/28 05:06:07;;;;;;;3.10;1.20;;;10.50;99.90;;;;;;5073304;28;20452;-87
2022/09/28 05:08:34;;;;;;;2.20;1.40;;;10.50;99.90;;;;;;5073257;28;20476;-87
2022/09/28 05:11:03;;;;;;;2.60;1.27;;;10.50;99.90;;;;;;5073080;28;20582;-87
2022/09/28 05:13:31;;;;;;;2.60;1.10;;;10.50;99.90;;;;;;5072874;28;20471;-87
2022/09/28 05:15:59;;;;;;;4.30;1.43;;;10.40;99.90;;;;;;5072946;28;20439;-87
2022/09/28 05:18:26;;;;;;;4.67;2.00;;;10.40;99.90;;;;;;5073186;28;20451;-87
2022/09/28 05:20:52;;;;;;;2.23;0.97;;;10.40;99.90;;;;;;5073320;28;20485;-88
2022/09/28 05:23:19;;;;;;;1.90;1.00;;;10.40;99.90;;;;;;5083789;28;20467;-88
2022/09/28 05:25:46;;;;;;;1.60;1.30;;;10.40;99.90;;;;;;5080507;28;20440;-87
2022/09/28 05:28:12;;;;;;;3.67;1.57;;;10.40;99.90;;;;;;5073806;28;20444;-87
2022/09/28 05:30:39;;;;;;;3.37;1.43;;;10.40;99.90;;;;;;5082452;28;20487;-87
2022/09/28 05:33:07;;;;;;;3.63;1.43;;;10.40;99.90;;;;;;5093897;28;20508;-88
2022/09/28 05:35:34;;;;;;;2.60;1.30;;;10.40;99.90;;;;;;5091164;28;20513;-87
2022/09/28 05:38:04;;;;;;;1.63;1.40;;;10.40;99.90;;;;;;5073201;28;20486;-88
2022/09/28 05:40:31;;;;;;;4.30;1.63;;;10.40;99.90;;;;;;5073174;28;20519;-87
2022/09/28 05:43:01;;;;;;;4.03;1.73;;;10.40;99.90;;;;;;5073850;28;20436;-87
2022/09/28 05:45:29;;;;;;;2.40;1.00;;;10.30;99.90;;;;;;5073045;28;20459;-88
2022/09/28 05:47:57;;;;;;;2.70;1.47;;;10.40;99.90;;;;;;5072468;28;20448;-87
2022/09/28 05:50:25;;;;;;;5.00;1.70;;;10.40;99.90;;;;;;5057452;28;20989;-87
2022/09/28 05:52:59;;;;;;;4.13;1.40;;;10.40;99.90;;;;;;5053550;28;20449;-87
2022/09/28 05:55:26;;;;;;;2.63;1.90;;;10.40;99.90;;;;;;5052710;28;20448;-87
2022/09/28 05:57:53;;;;;;;2.40;1.30;;;10.40;99.90;;;;;;5060735;28;21097;-87
2022/09/28 06:00:19;;;;;;;4.20;2.23;;;10.40;99.90;;;;;;5076646;28;20444;-88
2022/09/28 06:02:55;;;;;;;2.93;1.73;;;10.40;99.90;;;;;;5066250;28;20506;-87
2022/09/28 06:05:22;;;;;;;4.70;1.67;;;10.40;99.90;;;;;;5058957;28;20483;-87
2022/09/28 06:07:50;;;;;;;3.60;1.63;;;10.40;99.90;;;;;;5053176;28;20478;-87
2022/09/28 06:10:17;;;;;;;5.20;1.90;;;10.40;99.90;;;;;;5052735;28;20472;-87
2022/09/28 06:12:46;;;;;;;3.40;1.83;;;10.40;99.90;;;;;;5052839;28;20445;-87
2022/09/28 06:15:13;;;;;;;2.70;1.60;;;10.40;99.90;;;;;;5058583;28;20468;-88
2022/09/28 06:17:41;;;;;;;3.30;2.10;;;10.40;99.90;;;;;;5074697;28;20574;-88
2022/09/28 06:20:11;;;;;;;2.97;1.77;;;10.40;99.90;;;;;;5061337;28;20489;-88
2022/09/28 06:22:38;;;;;;;2.37;1.40;;;10.50;99.90;;;;;;5052403;28;20958;-88
2022/09/28 06:25:08;;;;;;;4.00;1.80;;;10.50;99.90;;;;;;5052080;28;20551;-87
2022/09/28 06:27:34;;;;;;;3.37;1.67;;;10.50;99.90;;;;;;5056298;28;20988;-88
2022/09/28 06:30:02;;;;;;;2.77;1.90;;;10.50;99.90;;;;;;5062995;28;20477;-87
2022/09/28 06:32:29;;;;;;;2.03;1.50;;;10.60;99.90;;;;;;5051962;28;20445;-87
2022/09/28 06:34:55;;;;;;;2.53;1.60;;;10.60;99.90;;;;;;5059134;28;20491;-87
2022/09/28 06:37:24;;;;;;;4.20;1.80;;;10.60;99.90;;;;;;5071332;28;20446;-87
2022/09/28 06:39:52;;;;;;;2.10;1.80;;;10.70;99.90;;;;;;5084469;28;20458;-88
2022/09/28 06:42:20;;;;;;;4.00;1.83;;;10.70;99.90;;;;;;5065316;28;20444;-88
2022/09/28 06:44:46;;;;;;;2.30;1.60;;;10.70;99.90;;;;;;5060515;28;20467;-87
2022/09/28 06:47:13;;;;;;;5.03;2.40;;;10.80;99.90;;;;;;5067221;28;20440;-89
2022/09/28 06:49:40;;;;;;;4.13;2.00;;;10.80;99.90;;;;;;5069505;28;20460;-86
2022/09/28 06:52:07;;;;;;;3.17;2.10;;;10.80;99.90;;;;;;5066508;28;20493;-87
2022/09/28 06:54:33;;;;;;;4.50;1.90;;;10.80;99.90;;;;;;5056879;28;20513;-87
2022/09/28 06:57:01;;;;;;;6.60;1.97;;;10.80;99.90;;;;;;5063115;28;20445;-87
2022/09/28 06:59:30;;;;;;;7.70;2.60;;;10.90;99.90;;;;;;5057776;28;20534;-87
2022/09/28 07:01:56;;;;;;;5.10;2.50;;;10.90;99.90;;;;;;5059834;28;20440;-87
2022/09/28 07:04:24;;;;;;;4.17;2.30;;;10.90;99.90;;;;;;5055598;28;20475;-86
2022/09/28 07:06:51;;;;;;;5.13;2.30;;;10.90;99.90;;;;;;5058319;28;20451;-86
2022/09/28 07:09:18;;;;;;;6.43;3.30;;;11.00;99.90;;;;;;5067387;28;20973;-87
2022/09/28 07:11:45;;;;;;;4.93;2.10;;;11.00;99.90;;;;;;5067588;28;20988;-87
2022/09/28 07:14:12;;;;;;;5.47;2.40;;;11.00;99.90;;;;;;5055039;28;20530;-87
2022/09/28 07:16:40;;;;;;;5.20;3.10;;;11.10;99.90;;;;;;5059359;28;20880;-87
2022/09/28 07:19:07;;;;;;;5.67;2.60;;;11.10;99.90;;;;;;5060999;28;20953;-87
2022/09/28 07:21:34;;;;;;;3.33;2.17;;;11.10;99.90;;;;;;5053915;28;20433;-87
2022/09/28 07:24:00;;;;;;;7.10;2.63;;;11.10;99.90;;;;;;5063747;28;20506;-87
2022/09/28 07:26:27;;;;;;;6.13;3.30;;;11.20;99.90;;;;;;5057317;28;21015;-87
2022/09/28 07:28:54;;;;;;;5.93;2.93;;;11.30;99.90;;;;;;5059380;28;20470;-87
2022/09/28 07:31:23;;;;;;;5.93;2.97;;;11.40;99.90;;;;;;5051919;28;20570;-87
2022/09/28 07:33:52;;;;;;;3.63;2.57;;;11.40;99.90;;;;;;5078781;28;20443;-87
2022/09/28 07:36:19;;;;;;;5.37;2.90;;;11.50;99.90;;;;;;5061628;28;20522;-87
2022/09/28 07:38:46;;;;;;;3.30;2.70;;;11.60;99.90;;;;;;5060553;28;20444;-87
2022/09/28 07:41:13;;;;;;;5.70;3.30;;;11.60;99.90;;;;;;5061862;28;20830;-87
2022/09/28 07:43:41;;;;;;;4.00;3.00;;;11.60;99.90;;;;;;5060787;28;20549;-87
2022/09/28 07:46:10;;;;;;;5.73;4.47;;;11.60;99.90;;;;;;5069782;28;20436;-86
2022/09/28 07:48:41;;;;;;;4.03;3.07;;;11.60;99.90;;;;;;5063315;28;20447;-87
2022/09/28 07:51:10;;;;;;;6.03;2.93;;;11.70;99.90;;;;;;5060702;28;20476;-87
2022/09/28 07:53:37;;;;;;;5.20;3.10;;;11.70;99.90;;;;;;5066777;28;20827;-87
2022/09/28 07:56:07;;;;;;;4.40;3.97;;;11.70;99.90;;;;;;5058861;28;20464;-88
2022/09/28 07:58:35;;;;;;;4.20;2.90;;;11.80;99.90;;;;;;5061008;28;20444;-88
2022/09/28 08:01:06;;;;;;;3.90;2.97;;;11.90;99.90;;;;;;5065481;28;20440;-88
2022/09/28 08:03:34;;;;;;;5.57;3.50;;;12.00;99.90;;;;;;5061106;28;20468;-88
2022/09/28 08:06:02;;;;;;;6.13;3.20;;;12.10;99.90;;;;;;5066192;28;20451;-88
2022/09/28 08:08:33;;;;;;;8.07;2.90;;;12.20;99.90;;;;;;5081038;28;20428;-85
2022/09/28 08:11:00;;;;;;;10.20;3.43;;;12.30;99.90;;;;;;5084220;28;20492;-87
2022/09/28 08:13:27;;;;;;;10.70;4.00;;;12.30;99.90;;;;;;5085230;28;20462;-84
2022/09/28 08:15:54;;;;;;;6.30;3.60;;;12.40;99.90;;;;;;5083444;28;20456;-85
2022/09/28 08:18:22;;;;;;;7.67;3.43;;;12.50;99.90;;;;;;5076633;28;20437;-89
2022/09/28 08:23:38;;;;;;;3.83;2.53;;;12.70;99.90;;;;;;5069386;28;20555;-87
2022/09/28 08:26:05;;;;;;;5.57;2.87;;;12.80;99.90;;;;;;5065276;28;20524;-87
2022/09/28 08:28:33;;;;;;;6.43;3.80;;;13.10;99.90;;;;;;5065387;28;20550;-87
2022/09/28 08:31:01;;;;;;;5.57;3.30;;;13.30;99.90;;;;;;5061798;28;20483;-88
2022/09/28 08:33:28;;;;;;;2.90;2.20;;;13.70;99.90;;;;;;5063048;28;20487;-87
2022/09/28 08:35:56;;;;;;;3.80;2.37;;;14.00;99.90;;;;;;5049147;28;20439;-87
2022/09/28 08:38:23;;;;;;;4.33;3.10;;;14.10;99.90;;;;;;5068964;28;20483;-86
2022/09/28 08:41:06;;;;;;;4.50;2.10;;;14.40;99.90;;;;;;5069734;28;20440;-86
2022/09/28 08:43:52;;;;;;;6.20;2.77;;;14.50;99.90;;;;;;5074661;28;21147;-86
2022/09/28 08:46:24;;;;;;;3.70;2.33;;;14.40;99.90;;;;;;5065833;28;20851;-86
2022/09/28 08:48:54;;;;;;;3.80;2.70;;;14.50;99.90;;;;;;5062734;28;20436;-88
2022/09/28 08:51:25;;;;;;;7.07;2.57;;;14.50;99.90;;;;;;5075038;28;20471;-87
2022/09/28 08:53:58;;;;;;;5.90;2.87;;;14.50;99.90;;;;;;5079683;28;20460;-87
2022/09/28 08:56:34;;;;;;;4.30;3.03;;;14.30;99.90;;;;;;5061321;28;20472;-87
2022/09/28 08:59:05;;;;;;;6.10;3.00;;;14.10;99.90;;;;;;5067767;28;20916;-87
2022/09/28 09:01:36;;;;;;;4.33;2.77;;;14.10;99.90;;;;;;5061697;28;20531;-87
2022/09/28 09:04:05;;;;;;;7.93;2.63;;;14.10;99.90;;;;;;5059088;28;20468;-87
2022/09/28 09:06:41;;;;;;;5.17;2.80;;;14.00;99.90;;;;;;5063097;28;20856;-87
2022/09/28 09:09:22;;;;;;;6.63;2.73;;;13.90;99.90;;;;;;5063384;28;20575;-87
2022/09/28 09:12:03;;;;;;;3.70;2.73;;;13.80;99.90;;;;;;5055050;28;20480;-87
2022/09/28 09:14:45;;;;;;;4.53;2.27;;;13.80;99.90;;;;;;5059763;28;20551;-87
2022/09/28 09:17:20;;;;;;;3.53;2.87;;;14.00;99.90;;;;;;5055269;28;20436;-87
2022/09/28 09:19:52;;;;;;;3.27;2.57;;;14.30;99.90;;;;;;5058499;28;20470;-87
2022/09/28 09:22:31;;;;;;;3.70;2.50;;;14.60;99.90;;;;;;5080054;28;20438;-87
2022/09/28 09:25:07;;;;;;;3.53;2.47;;;15.00;99.90;;;;;;5077433;28;20459;-87
2022/09/28 09:27:50;;;;;;;5.47;2.60;;;15.10;99.90;;;;;;5068959;28;20856;-87
2022/09/28 09:30:20;;;;;;;4.40;2.57;;;15.10;99.90;;;;;;5062011;28;20512;-87
2022/09/28 09:33:21;;;;;;;6.87;2.77;;;15.20;99.90;;;;;;5058740;28;20468;-87
2022/09/28 09:36:00;;;;;;;2.53;2.23;;;15.40;99.90;;;;;;5063810;28;20557;-87
2022/09/28 09:38:47;;;;;;;8.60;3.43;;;15.60;99.90;;;;;;5059618;28;20445;-86
2022/09/28 09:41:25;;;;;;;5.13;2.20;;;15.70;99.90;;;;;;5055800;28;20437;-86
2022/09/28 09:44:25;;;;;;;4.00;2.50;;;15.70;99.90;;;;;;5061114;28;20456;-87
2022/09/28 09:47:06;;;;;;;3.90;1.77;;;15.90;99.90;;;;;;5063173;28;20459;-86
2022/09/28 09:49:37;;;;;;;4.97;2.97;;;16.10;99.90;;;;;;5067661;28;20471;-86
2022/09/28 09:52:11;;;;;;;2.90;2.00;;;16.40;99.90;;;;;;5065027;28;20477;-87
2022/09/28 09:54:42;;;;;;;4.60;2.00;;;16.90;99.70;;;;;;5072361;28;20461;-86
2022/09/28 09:57:13;;;;;;;6.77;2.70;;;17.20;99.10;;;;;;5063009;28;20433;-86
2022/09/28 09:59:43;;;;;;;4.53;2.57;;;17.50;98.70;;;;;;5090031;28;20423;-86
2022/09/28 10:02:20;;;;;;;3.40;1.93;;;17.80;97.90;;;;;;5073582;28;20440;-87
2022/09/28 10:04:49;;;;;;;2.97;2.00;;;18.10;97.30;;;;;;5074100;28;20448;-87
2022/09/28 10:07:25;;;;;;;4.50;1.80;;;17.70;97.10;;;;;;5070865;28;20433;-87
2022/09/28 10:09:57;;;;;;;4.47;2.00;;;17.20;97.60;;;;;;5063422;28;20471;-87
2022/09/28 10:12:24;;;;;;;4.83;2.83;;;17.20;99.00;;;;;;5056090;28;20485;-87
2022/09/28 10:14:54;;;;;;;10.60;4.83;;;17.30;99.10;;;;;;5059972;28;21228;-87
2022/09/28 10:17:26;;;;;;;5.73;2.73;;;17.40;97.80;;;;;;5056732;28;20443;-87
2022/09/28 10:19:55;;;;;;;3.83;3.00;;;17.50;97.70;;;;;;5066070;28;20470;-87
2022/09/28 10:22:25;;;;;;;7.40;2.63;;;17.30;96.70;;;;;;5059154;28;20934;-86
2022/09/28 10:24:57;;;;;;;4.83;2.33;;;17.30;96.40;;;;;;5058973;28;20860;-86
2022/09/28 10:27:26;;;;;;;3.20;1.87;;;17.30;96.60;;;;;;5058996;28;20439;-86
2022/09/28 10:29:59;;;;;;;3.70;2.13;;;17.30;95.90;;;;;;5052907;28;20933;-86
2022/09/28 10:32:28;;;;;;;5.00;2.90;;;17.40;96.90;;;;;;5057771;28;20475;-85
2022/09/28 10:35:13;;;;;;;4.97;2.33;;;17.50;96.00;;;;;;5091109;28;20470;-87
2022/09/28 10:37:51;;;;;;;3.97;2.43;;;17.40;95.60;;;;;;5082664;28;20436;-86
2022/09/28 10:40:29;;;;;;;5.90;2.30;;;17.40;95.00;;;;;;5066007;28;20510;-86
2022/09/28 10:43:01;;;;;;;5.33;2.10;;;17.30;94.90;;;;;;5058817;28;21151;-86
2022/09/28 10:45:34;;;;;;;9.47;3.73;;;17.20;95.10;;;;;;5061405;28;20472;-86
2022/09/28 10:48:04;;;;;;;6.20;4.20;;;17.20;94.70;;;;;;5066078;28;20452;-86
2022/09/28 10:50:31;;;;;;;5.77;2.93;;;17.20;94.80;;;;;;5065469;28;20936;-86
2022/09/28 10:53:11;;;;;;;4.97;2.10;;;17.40;94.40;;;;;;5057231;28;20506;-86
2022/09/28 10:55:38;;;;;;;4.37;2.10;;;17.50;93.70;;;;;;5054903;28;20452;-86
2022/09/28 10:58:24;;;;;;;2.73;2.03;;;17.60;92.90;;;;;;5062340;28;20444;-87
2022/09/28 11:00:59;;;;;;;3.97;2.00;;;17.60;92.70;;;;;;5061001;28;20447;-87
2022/09/28 11:03:27;;;;;;;4.80;2.10;;;17.70;93.00;;;;;;5062762;28;20500;-87
2022/09/28 11:05:56;;;;;;;4.90;2.07;;;17.50;91.40;;;;;;5058238;28;20449;-87
2022/09/28 11:08:26;;;;;;;4.97;3.10;;;17.30;92.60;;;;;;5084809;28;20433;-86
2022/09/28 11:11:06;;;;;;;5.43;2.90;;;17.40;92.40;;;;;;5071738;28;20448;-86
2022/09/28 11:13:42;;;;;;;4.63;2.50;;;17.20;91.80;;;;;;5068911;28;20524;-86
2022/09/28 11:16:22;;;;;;;4.37;2.53;;;17.40;91.80;;;;;;5059179;28;20493;-87
2022/09/28 11:18:49;;;;;;;3.73;2.60;;;17.60;91.90;;;;;;5066696;28;20945;-86
2022/09/28 11:21:18;;;;;;;3.50;2.67;;;17.90;91.50;;;;;;5067331;28;20923;-86
2022/09/28 11:23:56;;;;;;;4.37;2.63;;;18.00;91.40;;;;;;5068477;28;20484;-87
2022/09/28 11:26:23;;;;;;;3.30;2.60;;;18.10;90.80;;;;;;5059686;28;20443;-87
2022/09/28 11:28:52;;;;;;;5.63;1.60;;;18.00;90.70;;;;;;5058572;28;20436;-87
2022/09/28 11:31:26;;;;;;;7.80;2.00;;;18.10;90.20;;;;;;5064721;28;20532;-86
2022/09/28 11:34:06;;;;;;;3.77;2.07;;;18.30;89.10;;;;;;5064561;28;21228;-87
2022/09/28 11:36:48;;;;;;;3.50;2.20;;;18.70;89.40;;;;;;5060509;28;20475;-86
2022/09/28 11:39:27;;;;;;;4.03;2.10;;;19.50;86.10;;;;;;5062822;28;20444;-87
2022/09/28 11:42:04;;;;;;;5.33;3.00;;;19.80;84.20;;;;;;5074876;28;20438;-87
2022/09/28 11:44:37;;;;;;;5.30;2.73;;;20.00;84.10;;;;;;5069728;28;20466;-86
2022/09/28 11:47:36;;;;;;;6.17;1.90;;;20.10;82.60;;;;;;5058803;28;20449;-86
2022/09/28 11:50:07;;;;;;;3.10;1.80;;;20.30;82.00;;;;;;5061313;28;20437;-86
2022/09/28 11:52:41;;;;;;;4.60;1.70;;;20.50;80.10;;;;;;5061909;28;20987;-87
2022/09/28 11:55:17;;;;;;;5.50;2.70;;;20.70;78.90;;;;;;5061359;28;20541;-87
2022/09/28 11:57:48;;;;;;;6.17;3.10;;;21.20;78.20;;;;;;5057302;28;20444;-87
2022/09/28 12:00:18;;;;;;;5.53;3.77;;;21.50;75.80;;;;;;5057438;28;20952;-87
2022/09/28 12:02:51;;;;;;;8.17;1.90;;;21.90;74.30;;;;;;5082653;28;20433;-85
2022/09/28 12:05:24;;;;;;;3.90;2.03;;;22.10;72.50;;;;;;5073343;28;20487;-87
2022/09/28 12:07:54;;;;;;;3.07;2.00;;;21.70;71.40;;;;;;5061739;28;20424;-87
2022/09/28 12:10:30;;;;;;;5.00;2.77;;;21.30;72.60;;;;;;5061445;28;20499;-87
2022/09/28 12:13:02;;;;;;;6.73;1.90;;;20.10;74.50;;;;;;5073163;28;20472;-87
2022/09/28 12:15:35;;;;;;;2.50;1.40;;;19.60;77.40;;;;;;5090239;28;20432;-87
2022/09/28 12:18:06;;;;;;;5.60;2.47;;;19.00;79.70;;;;;;5068196;28;20457;-87
2022/09/28 12:20:38;;;;;;;3.07;1.67;;;18.80;82.50;;;;;;5078630;28;20456;-87
2022/09/28 12:23:11;;;;;;;4.90;2.40;;;18.70;79.90;;;;;;5062287;28;20819;-87
2022/09/28 12:25:45;;;;;;;5.03;2.00;;;18.70;80.30;;;;;;5060647;28;20495;-87
2022/09/28 12:28:18;;;;;;;3.70;2.00;;;18.90;81.90;;;;;;5076109;28;20444;-87
2022/09/28 12:30:47;;;;;;;4.97;2.30;;;19.70;79.30;;;;;;5062750;28;20449;-87
2022/09/28 12:33:15;;;;;;;3.20;1.60;;;20.20;74.70;;;;;;5057944;28;20476;-87
2022/09/28 12:36:02;;;;;;;3.40;2.00;;;20.00;76.60;;;;;;5062782;28;20444;-87
2022/09/28 12:38:42;;;;;;;6.10;3.80;;;20.30;74.60;;;;;;5056698;28;20443;-87
2022/09/28 12:41:23;;;;;;;3.30;2.20;;;20.70;73.60;;;;;;5061038;28;20936;-87
2022/09/28 12:44:02;;;;;;;9.57;5.00;;;21.20;72.60;;;;;;5057053;28;20467;-91
2022/09/28 12:46:47;;;;;;;9.03;5.00;;;21.60;70.30;;;;;;5054373;28;20440;-87
2022/09/28 12:49:33;;;;;;;3.00;2.63;;;22.20;67.70;;;;;;5061981;28;20449;-87
2022/09/28 12:52:07;;;;;;;5.60;3.30;;;22.10;64.70;;;;;;5064046;28;20567;-87
2022/09/28 12:54:54;;;;;;;3.27;2.10;;;21.80;63.80;;;;;;5059075;28;20599;-87
2022/09/28 12:57:35;;;;;;;4.43;2.80;;;21.40;65.40;;;;;;5064747;28;20439;-87
2022/09/28 13:00:06;;;;;;;4.63;2.50;;;20.70;68.60;;;;;;5069288;28;20467;-87
2022/09/28 13:02:49;;;;;;;3.37;1.77;;;20.40;69.60;;;;;;5060488;28;20512;-87
2022/09/28 13:05:43;;;;;;;4.47;2.30;;;20.00;70.80;;;;;;5060708;28;20475;-87
2022/09/28 13:08:19;;;;;;;4.60;2.80;;;19.90;72.50;;;;;;5070776;28;20497;-87
2022/09/28 13:10:53;;;;;;;4.60;1.93;;;19.80;72.90;;;;;;5067062;28;20867;-87